Time;durP1;ratioP1;P1;durP2;ratioP2;P2;SDS_P1;SDS_P2;PMS_P1;PMS_P2;Temp;Humidity;BMP_temperature;BMP_pressure;BME280_temperature;BME280_humidity;BME280_pressure;Samples;Min_cycle;Max_cycle;Signal;HPM_P1;HPM_P2
2023/10/31 00:00:34;;;;;;;24.27;2.90;;;;;;;;;;5072452;28;20036;-77
2023/10/31 00:03:01;;;;;;;22.35;2.88;;;;;;;;;;5071307;28;20071;-76
2023/10/31 00:05:28;;;;;;;20.65;2.00;;;;;;;;;;5070614;28;20033;-76
2023/10/31 00:07:54;;;;;;;11.52;2.15;;;;;;;;;;5072188;28;20040;-76
2023/10/31 00:10:21;;;;;;;16.15;1.88;;;;;;;;;;5071597;28;20356;-75
2023/10/31 00:12:48;;;;;;;15.18;2.33;;;;;;;;;;5072416;28;20036;-76
2023/10/31 00:15:15;;;;;;;19.80;2.13;;;;;;;;;;5070513;28;20041;-77
2023/10/31 00:17:42;;;;;;;17.73;2.22;;;;;;;;;;5072051;28;20064;-77
2023/10/31 00:20:09;;;;;;;17.63;2.15;;;;;;;;;;5070612;28;20033;-77
2023/10/31 00:22:35;;;;;;;21.63;2.55;;;;;;;;;;5070626;28;20067;-77
2023/10/31 00:25:02;;;;;;;18.67;2.60;;;;;;;;;;5070780;28;20036;-77
2023/10/31 00:27:29;;;;;;;19.65;1.63;;;;;;;;;;5070044;28;20040;-77
2023/10/31 00:29:56;;;;;;;15.60;1.63;;;;;;;;;;5071853;28;20049;-76
2023/10/31 00:32:25;;;;;;;23.52;2.65;;;;;;;;;;5071196;28;20063;-78
2023/10/31 00:34:52;;;;;;;19.25;2.40;;;;;;;;;;5071971;28;20272;-77
2023/10/31 00:37:19;;;;;;;21.35;2.90;;;;;;;;;;5070766;28;20033;-77
2023/10/31 00:39:45;;;;;;;14.82;2.00;;;;;;;;;;5071626;28;20044;-78
2023/10/31 00:42:12;;;;;;;27.27;2.40;;;;;;;;;;5071570;28;20049;-77
2023/10/31 00:44:39;;;;;;;10.05;1.80;;;;;;;;;;5070022;28;20044;-77
2023/10/31 00:47:06;;;;;;;19.00;2.05;;;;;;;;;;5071326;28;20044;-76
2023/10/31 00:49:32;;;;;;;21.67;2.38;;;;;;;;;;5071511;28;20036;-76
2023/10/31 00:51:59;;;;;;;15.48;2.65;;;;;;;;;;5071571;28;20132;-76
2023/10/31 00:54:26;;;;;;;10.75;2.30;;;;;;;;;;5071006;28;20063;-76
2023/10/31 00:56:53;;;;;;;16.42;2.42;;;;;;;;;;5071342;28;20062;-76
2023/10/31 00:59:19;;;;;;;15.23;1.90;;;;;;;;;;5052967;28;20050;-76
2023/10/31 01:01:46;;;;;;;16.42;1.70;;;;;;;;;;5071302;28;20044;-77
2023/10/31 01:04:13;;;;;;;14.77;1.92;;;;;;;;;;5070995;28;20048;-76
2023/10/31 01:06:43;;;;;;;26.77;2.17;;;;;;;;;;5069864;28;20038;-77
2023/10/31 01:09:11;;;;;;;20.73;2.55;;;;;;;;;;5052788;28;20062;-76
2023/10/31 01:11:38;;;;;;;17.05;2.40;;;;;;;;;;5069599;28;20041;-76
2023/10/31 01:14:04;;;;;;;16.15;2.30;;;;;;;;;;5053174;28;20513;-76
2023/10/31 01:16:31;;;;;;;17.20;1.90;;;;;;;;;;5070984;28;20041;-76
2023/10/31 01:18:58;;;;;;;10.82;1.88;;;;;;;;;;5069764;28;20055;-77
2023/10/31 01:21:25;;;;;;;12.40;2.17;;;;;;;;;;5069207;28;20043;-77
2023/10/31 01:23:51;;;;;;;14.32;1.85;;;;;;;;;;5069560;28;20178;-77
2023/10/31 01:26:18;;;;;;;18.40;2.40;;;;;;;;;;5070790;28;20062;-77
2023/10/31 01:28:45;;;;;;;19.77;2.47;;;;;;;;;;5070785;28;20257;-77
2023/10/31 01:31:12;;;;;;;23.45;2.60;;;;;;;;;;5070568;28;20072;-77
2023/10/31 01:33:38;;;;;;;23.58;2.72;;;;;;;;;;5069326;28;20056;-77
2023/10/31 01:36:06;;;;;;;19.45;2.58;;;;;;;;;;5069328;28;20501;-76
2023/10/31 01:38:33;;;;;;;18.02;2.47;;;;;;;;;;5069327;28;20525;-77
2023/10/31 01:40:59;;;;;;;20.58;2.45;;;;;;;;;;5070953;28;20032;-76
2023/10/31 01:43:30;;;;;;;16.48;2.42;;;;;;;;;;5068777;28;20044;-76
2023/10/31 01:45:57;;;;;;;26.38;2.88;;;;;;;;;;5052974;28;20051;-76
2023/10/31 01:48:25;;;;;;;23.02;2.60;;;;;;;;;;5070281;28;20049;-77
2023/10/31 01:50:52;;;;;;;26.48;2.97;;;;;;;;;;5070626;28;20083;-77
2023/10/31 01:53:18;;;;;;;19.77;2.33;;;;;;;;;;5071031;28;20047;-76
2023/10/31 01:55:46;;;;;;;23.67;3.28;;;;;;;;;;5063476;28;20051;-77
2023/10/31 01:58:14;;;;;;;22.83;2.75;;;;;;;;;;5050218;28;20037;-76
2023/10/31 02:00:42;;;;;;;20.67;3.28;;;;;;;;;;5050450;28;20123;-77
2023/10/31 02:03:09;;;;;;;25.75;3.55;;;;;;;;;;5050434;28;20152;-77
2023/10/31 02:05:36;;;;;;;23.13;2.80;;;;;;;;;;5049098;28;20435;-76
2023/10/31 02:08:04;;;;;;;29.27;3.28;;;;;;;;;;5049219;28;20037;-77
2023/10/31 02:10:30;;;;;;;28.55;3.08;;;;;;;;;;5031983;28;20052;-77
2023/10/31 02:12:57;;;;;;;23.08;3.20;;;;;;;;;;5065787;28;20124;-76
2023/10/31 02:15:24;;;;;;;32.08;3.00;;;;;;;;;;5048489;28;20056;-76
2023/10/31 02:17:51;;;;;;;29.10;3.67;;;;;;;;;;5049084;28;20037;-77
2023/10/31 02:20:17;;;;;;;26.80;3.45;;;;;;;;;;5050008;28;20091;-77
2023/10/31 02:22:44;;;;;;;32.28;3.65;;;;;;;;;;5050294;28;20090;-77
2023/10/31 02:25:18;;;;;;;31.40;3.20;;;;;;;;;;5050120;28;20041;-77
2023/10/31 02:27:45;;;;;;;35.80;3.25;;;;;;;;;;5065548;28;20032;-77
2023/10/31 02:30:12;;;;;;;39.08;4.63;;;;;;;;;;5090441;28;20044;-77
2023/10/31 02:32:39;;;;;;;32.17;3.50;;;;;;;;;;5090214;28;20062;-77
2023/10/31 02:35:07;;;;;;;32.35;3.75;;;;;;;;;;5090379;28;20036;-77
2023/10/31 02:37:34;;;;;;;25.77;3.80;;;;;;;;;;5089107;28;20044;-77
2023/10/31 02:40:01;;;;;;;28.75;4.30;;;;;;;;;;5090598;28;20466;-76
2023/10/31 02:42:27;;;;;;;22.45;3.75;;;;;;;;;;5089852;28;20043;-76
2023/10/31 02:44:54;;;;;;;26.75;3.38;;;;;;;;;;5089308;28;20383;-77
2023/10/31 02:47:21;;;;;;;35.55;3.80;;;;;;;;;;5071984;28;20439;-76
2023/10/31 02:49:48;;;;;;;28.05;3.42;;;;;;;;;;5090070;28;20040;-77
2023/10/31 02:52:15;;;;;;;39.08;4.03;;;;;;;;;;5088839;28;20048;-77
2023/10/31 02:54:41;;;;;;;28.08;3.78;;;;;;;;;;5088836;28;20044;-77
2023/10/31 02:57:09;;;;;;;30.70;5.22;;;;;;;;;;5071138;28;20036;-77
2023/10/31 02:59:35;;;;;;;35.25;4.30;;;;;;;;;;5071103;28;20136;-77
2023/10/31 03:02:02;;;;;;;40.97;4.72;;;;;;;;;;5073901;28;20051;-77
2023/10/31 03:04:29;;;;;;;33.28;4.55;;;;;;;;;;5073301;28;20120;-77
2023/10/31 03:06:56;;;;;;;35.53;3.17;;;;;;;;;;5073828;28;20101;-77
2023/10/31 03:09:22;;;;;;;27.17;4.15;;;;;;;;;;5071730;28;20033;-76
2023/10/31 03:11:49;;;;;;;39.15;4.85;;;;;;;;;;5073300;28;20147;-77
2023/10/31 03:14:16;;;;;;;35.72;4.07;;;;;;;;;;5071807;28;20244;-76
2023/10/31 03:16:43;;;;;;;25.25;3.58;;;;;;;;;;5071997;28;20094;-76
2023/10/31 03:19:09;;;;;;;22.33;3.50;;;;;;;;;;5073164;28;20048;-76
2023/10/31 03:21:36;;;;;;;29.50;3.30;;;;;;;;;;5073098;28;20072;-77
2023/10/31 03:24:03;;;;;;;27.70;3.67;;;;;;;;;;5073643;28;20048;-77
2023/10/31 03:26:30;;;;;;;21.15;3.80;;;;;;;;;;5072840;28;20498;-77
2023/10/31 03:28:57;;;;;;;30.60;4.07;;;;;;;;;;5072000;28;20455;-76
2023/10/31 03:31:24;;;;;;;30.98;3.50;;;;;;;;;;5072862;28;20417;-77
2023/10/31 03:33:51;;;;;;;27.05;3.97;;;;;;;;;;5073086;28;20387;-77
2023/10/31 03:36:18;;;;;;;33.83;3.85;;;;;;;;;;5072977;28;20047;-77
2023/10/31 03:38:44;;;;;;;27.70;3.25;;;;;;;;;;5072875;28;20052;-77
2023/10/31 03:41:13;;;;;;;33.35;3.38;;;;;;;;;;5074022;28;20128;-77
2023/10/31 03:43:39;;;;;;;35.35;4.65;;;;;;;;;;5074230;28;20064;-77
2023/10/31 03:46:06;;;;;;;43.83;4.47;;;;;;;;;;5072972;28;20131;-77
2023/10/31 03:48:33;;;;;;;30.23;4.35;;;;;;;;;;5072938;28;20036;-76
2023/10/31 03:51:00;;;;;;;35.50;4.20;;;;;;;;;;5071362;28;20044;-76
2023/10/31 03:53:26;;;;;;;28.75;3.60;;;;;;;;;;5070891;28;20044;-77
2023/10/31 03:55:53;;;;;;;38.47;4.88;;;;;;;;;;5071443;28;20464;-77
2023/10/31 03:58:20;;;;;;;44.13;4.38;;;;;;;;;;5070719;28;20067;-76
2023/10/31 04:00:47;;;;;;;33.05;4.40;;;;;;;;;;5071305;28;20397;-76
2023/10/31 04:03:13;;;;;;;34.28;4.32;;;;;;;;;;5070895;28;20426;-76
2023/10/31 04:05:40;;;;;;;34.22;4.55;;;;;;;;;;5071045;28;20048;-76
2023/10/31 04:08:07;;;;;;;38.22;5.32;;;;;;;;;;5071088;28;20146;-76
2023/10/31 04:10:34;;;;;;;30.15;3.97;;;;;;;;;;5070013;28;20523;-76
2023/10/31 04:13:01;;;;;;;39.58;4.70;;;;;;;;;;5072205;28;20043;-77
2023/10/31 04:15:28;;;;;;;34.42;4.22;;;;;;;;;;5071896;28;20102;-76
2023/10/31 04:17:54;;;;;;;31.85;4.13;;;;;;;;;;5071087;28;20028;-77
2023/10/31 04:20:21;;;;;;;34.53;3.95;;;;;;;;;;5071837;28;20116;-77
2023/10/31 04:22:48;;;;;;;28.70;3.85;;;;;;;;;;5072377;28;20033;-76
2023/10/31 04:25:15;;;;;;;36.75;4.30;;;;;;;;;;5070707;28;20036;-77
2023/10/31 04:27:42;;;;;;;31.58;3.80;;;;;;;;;;5072022;28;20123;-77
2023/10/31 04:30:09;;;;;;;33.30;3.70;;;;;;;;;;5072002;28;20368;-77
2023/10/31 04:32:40;;;;;;;36.33;5.10;;;;;;;;;;5072091;28;20104;-77
2023/10/31 04:35:07;;;;;;;37.40;5.13;;;;;;;;;;5071756;28;20063;-77
2023/10/31 04:37:34;;;;;;;37.05;5.28;;;;;;;;;;5072197;28;20040;-77
2023/10/31 04:40:01;;;;;;;37.10;4.45;;;;;;;;;;5072274;28;20044;-77
2023/10/31 04:42:28;;;;;;;35.97;4.20;;;;;;;;;;5053413;28;20102;-77
2023/10/31 04:44:55;;;;;;;28.33;4.15;;;;;;;;;;5073379;28;20037;-77
2023/10/31 04:47:21;;;;;;;29.60;3.83;;;;;;;;;;5071275;28;20084;-77
2023/10/31 04:49:48;;;;;;;38.75;4.07;;;;;;;;;;5071452;28;20154;-76
2023/10/31 04:52:19;;;;;;;28.73;3.90;;;;;;;;;;5071260;28;20052;-77
2023/10/31 04:54:46;;;;;;;30.27;3.70;;;;;;;;;;5071868;28;20352;-77
2023/10/31 04:57:12;;;;;;;24.95;3.83;;;;;;;;;;5070861;28;20352;-77
2023/10/31 04:59:39;;;;;;;26.27;3.45;;;;;;;;;;5071364;28;20041;-77
2023/10/31 05:02:06;;;;;;;33.25;4.03;;;;;;;;;;5070216;28;20043;-77
2023/10/31 05:04:33;;;;;;;39.88;4.20;;;;;;;;;;5071693;28;20098;-77
2023/10/31 05:06:59;;;;;;;26.63;3.42;;;;;;;;;;5072114;28;20047;-77
2023/10/31 05:09:26;;;;;;;26.88;4.00;;;;;;;;;;5071575;28;20045;-77
2023/10/31 05:11:53;;;;;;;27.60;3.45;;;;;;;;;;5072160;28;20045;-78
2023/10/31 05:14:20;;;;;;;26.77;4.03;;;;;;;;;;5072082;28;20047;-78
2023/10/31 05:16:47;;;;;;;25.73;3.70;;;;;;;;;;5070346;28;20548;-77
2023/10/31 05:19:13;;;;;;;29.98;3.97;;;;;;;;;;5071933;28;20497;-81
2023/10/31 05:21:40;;;;;;;34.00;4.50;;;;;;;;;;5070898;28;20422;-77
2023/10/31 05:24:07;;;;;;;29.40;3.50;;;;;;;;;;5072653;28;20056;-81
2023/10/31 05:26:34;;;;;;;23.60;3.10;;;;;;;;;;5070573;28;20040;-77
2023/10/31 05:29:00;;;;;;;31.90;3.65;;;;;;;;;;5071647;28;20052;-76
2023/10/31 05:31:27;;;;;;;24.83;3.28;;;;;;;;;;5069591;28;20036;-77
2023/10/31 05:33:54;;;;;;;28.58;3.95;;;;;;;;;;5070119;28;20127;-77
2023/10/31 05:36:24;;;;;;;40.47;4.38;;;;;;;;;;5070808;28;20036;-77
2023/10/31 05:38:51;;;;;;;33.25;3.45;;;;;;;;;;5071511;28;20067;-77
2023/10/31 05:41:18;;;;;;;27.60;3.92;;;;;;;;;;5069376;28;20048;-78
2023/10/31 05:43:44;;;;;;;29.98;4.20;;;;;;;;;;5069747;28;20041;-77
2023/10/31 05:46:13;;;;;;;25.15;3.50;;;;;;;;;;5071914;28;20044;-76
2023/10/31 05:48:41;;;;;;;25.33;3.22;;;;;;;;;;5069676;28;20040;-76
2023/10/31 05:51:16;;;;;;;27.95;4.05;;;;;;;;;;5071049;28;20044;-77
2023/10/31 05:53:47;;;;;;;28.30;3.95;;;;;;;;;;5070898;28;20032;-75
2023/10/31 05:56:15;;;;;;;23.25;4.82;;;;;;;;;;5070559;28;20053;-75
2023/10/31 05:58:42;;;;;;;30.13;3.97;;;;;;;;;;5071047;28;20075;-76
2023/10/31 06:01:09;;;;;;;32.83;3.60;;;;;;;;;;5069591;28;20041;-76
2023/10/31 06:03:37;;;;;;;22.60;3.60;;;;;;;;;;5069828;28;20060;-76
2023/10/31 06:06:04;;;;;;;38.45;3.80;;;;;;;;;;5071235;28;20044;-76
2023/10/31 06:08:31;;;;;;;23.17;4.15;;;;;;;;;;5070453;28;20387;-77
2023/10/31 06:10:58;;;;;;;39.22;3.33;;;;;;;;;;5069858;28;20479;-77
2023/10/31 06:13:26;;;;;;;22.75;3.40;;;;;;;;;;5070545;28;20463;-76
2023/10/31 06:15:55;;;;;;;30.67;4.10;;;;;;;;;;5053356;28;20052;-77
2023/10/31 06:18:27;;;;;;;23.67;3.22;;;;;;;;;;5070364;28;20049;-77
2023/10/31 06:20:54;;;;;;;25.60;3.67;;;;;;;;;;5069766;28;20036;-77
2023/10/31 06:23:20;;;;;;;34.80;4.10;;;;;;;;;;5069143;28;20041;-77
2023/10/31 06:25:47;;;;;;;21.88;3.17;;;;;;;;;;5071053;28;20037;-77
2023/10/31 06:28:14;;;;;;;21.63;2.88;;;;;;;;;;5069251;28;20047;-76
2023/10/31 06:30:41;;;;;;;34.13;3.65;;;;;;;;;;5052600;28;20052;-77
2023/10/31 06:33:08;;;;;;;29.63;3.75;;;;;;;;;;5069366;28;20090;-77
2023/10/31 06:35:35;;;;;;;31.38;3.60;;;;;;;;;;5072488;28;20062;-76
2023/10/31 06:38:02;;;;;;;23.52;2.70;;;;;;;;;;5074611;28;20546;-76
2023/10/31 06:40:29;;;;;;;24.42;2.75;;;;;;;;;;5074068;28;20495;-77
2023/10/31 06:42:56;;;;;;;23.25;3.10;;;;;;;;;;5073273;28;20120;-77
2023/10/31 06:45:22;;;;;;;32.20;3.20;;;;;;;;;;5073959;28;20047;-78
2023/10/31 06:47:49;;;;;;;27.25;3.20;;;;;;;;;;5073102;28;20032;-77
2023/10/31 06:50:16;;;;;;;20.92;3.33;;;;;;;;;;5074341;28;20032;-77
2023/10/31 06:52:46;;;;;;;35.25;3.88;;;;;;;;;;5072612;28;20485;-77
2023/10/31 06:55:13;;;;;;;25.80;3.63;;;;;;;;;;5072653;28;20047;-82
2023/10/31 06:57:40;;;;;;;21.60;3.25;;;;;;;;;;5072708;28;20040;-81
2023/10/31 07:00:08;;;;;;;28.13;3.03;;;;;;;;;;5074003;28;20046;-77
2023/10/31 07:02:36;;;;;;;23.50;2.95;;;;;;;;;;5074406;28;20429;-77
2023/10/31 07:05:03;;;;;;;26.73;3.78;;;;;;;;;;5066097;28;20033;-78
2023/10/31 07:07:30;;;;;;;27.67;2.97;;;;;;;;;;5055336;28;20041;-78
2023/10/31 07:09:57;;;;;;;29.35;3.83;;;;;;;;;;5055242;28;20079;-78
2023/10/31 07:12:25;;;;;;;33.35;4.25;;;;;;;;;;5053436;28;20453;-77
2023/10/31 07:14:51;;;;;;;30.95;3.13;;;;;;;;;;5066881;28;20036;-77
2023/10/31 07:17:18;;;;;;;29.90;3.70;;;;;;;;;;5076460;28;20044;-77
2023/10/31 07:19:45;;;;;;;36.08;3.88;;;;;;;;;;5071607;28;20033;-78
2023/10/31 07:22:12;;;;;;;26.30;3.17;;;;;;;;;;5081280;28;20085;-76
2023/10/31 07:24:39;;;;;;;26.60;3.22;;;;;;;;;;5093701;28;20119;-79
2023/10/31 07:27:06;;;;;;;25.77;3.42;;;;;;;;;;5076821;28;20041;-76
2023/10/31 07:29:32;;;;;;;21.05;2.58;;;;;;;;;;5074928;28;20044;-77
2023/10/31 07:31:59;;;;;;;21.95;3.33;;;;;;;;;;5057102;28;20075;-76
2023/10/31 07:34:27;;;;;;;22.52;2.88;;;;;;;;;;5073428;28;20044;-76
2023/10/31 07:36:54;;;;;;;20.35;2.90;;;;;;;;;;5074329;28;20053;-76
2023/10/31 07:39:21;;;;;;;19.00;2.70;;;;;;;;;;5078644;28;20132;-76
2023/10/31 07:41:48;;;;;;;23.80;2.35;;;;;;;;;;5080596;28;20047;-77
2023/10/31 07:44:14;;;;;;;24.48;2.90;;;;;;;;;;5065401;28;20383;-77
2023/10/31 07:46:41;;;;;;;25.98;3.40;;;;;;;;;;5081754;28;20059;-76
2023/10/31 07:49:08;;;;;;;33.95;3.30;;;;;;;;;;5073288;28;20052;-77
2023/10/31 07:51:35;;;;;;;25.40;2.83;;;;;;;;;;5073631;28;20047;-77
2023/10/31 07:54:01;;;;;;;27.05;3.10;;;;;;;;;;5073822;28;20036;-77
2023/10/31 07:56:29;;;;;;;27.73;3.80;;;;;;;;;;5073506;28;20051;-77
2023/10/31 07:58:56;;;;;;;23.80;4.15;;;;;;;;;;5073015;28;20043;-77
2023/10/31 08:01:23;;;;;;;25.02;3.20;;;;;;;;;;5073369;28;20040;-76
2023/10/31 08:03:50;;;;;;;30.85;3.47;;;;;;;;;;5077794;28;20089;-77
2023/10/31 08:06:17;;;;;;;26.05;3.30;;;;;;;;;;5094062;28;20062;-77
2023/10/31 08:08:43;;;;;;;26.50;3.78;;;;;;;;;;5091778;28;20044;-77
2023/10/31 08:11:10;;;;;;;33.38;4.53;;;;;;;;;;5075670;28;20044;-77
2023/10/31 08:13:38;;;;;;;34.42;3.83;;;;;;;;;;5074815;28;20064;-77
2023/10/31 08:16:06;;;;;;;34.53;4.35;;;;;;;;;;5075995;28;20040;-76
2023/10/31 08:18:33;;;;;;;30.20;3.60;;;;;;;;;;5072798;28;20441;-77
2023/10/31 08:20:59;;;;;;;39.85;4.60;;;;;;;;;;5073938;28;20040;-77
2023/10/31 08:23:28;;;;;;;35.28;4.97;;;;;;;;;;5082277;28;20050;-77
2023/10/31 08:25:56;;;;;;;33.85;5.13;;;;;;;;;;5093012;28;20051;-76
2023/10/31 08:28:22;;;;;;;28.77;4.28;;;;;;;;;;5091758;28;20048;-77
2023/10/31 08:30:49;;;;;;;30.60;4.38;;;;;;;;;;5093581;28;20047;-78
2023/10/31 08:33:16;;;;;;;27.80;3.65;;;;;;;;;;5095698;28;20052;-77
2023/10/31 08:35:43;;;;;;;34.58;4.57;;;;;;;;;;5094586;28;20063;-78
2023/10/31 08:38:10;;;;;;;24.98;3.95;;;;;;;;;;5093741;28;20044;-76
2023/10/31 08:40:52;;;;;;;29.88;4.28;;;;;;;;;;5052736;28;20037;-76
2023/10/31 08:43:18;;;;;;;23.48;3.55;;;;;;;;;;5067577;28;20052;-76
2023/10/31 08:45:45;;;;;;;29.33;3.35;;;;;;;;;;5072455;28;20110;-76
2023/10/31 08:48:12;;;;;;;28.70;3.90;;;;;;;;;;5072194;28;20051;-76
2023/10/31 08:50:39;;;;;;;25.15;3.47;;;;;;;;;;5071396;28;20502;-76
2023/10/31 08:53:06;;;;;;;22.92;3.08;;;;;;;;;;5051085;28;20123;-76
2023/10/31 08:55:33;;;;;;;31.50;4.07;;;;;;;;;;5053505;28;20547;-75
2023/10/31 08:57:59;;;;;;;30.42;4.30;;;;;;;;;;5052667;28;20071;-76
2023/10/31 09:00:28;;;;;;;26.13;3.40;;;;;;;;;;5053097;28;20053;-76
2023/10/31 09:02:55;;;;;;;25.95;3.65;;;;;;;;;;5053699;28;20041;-76
2023/10/31 09:05:22;;;;;;;38.83;3.72;;;;;;;;;;5053231;28;20037;-76
2023/10/31 09:07:51;;;;;;;33.08;3.78;;;;;;;;;;5063663;28;20040;-75
2023/10/31 09:10:18;;;;;;;29.33;3.85;;;;;;;;;;5088317;28;20090;-76
2023/10/31 09:12:46;;;;;;;30.40;4.75;;;;;;;;;;5073252;28;20036;-76
2023/10/31 09:15:13;;;;;;;40.33;6.20;;;;;;;;;;5070695;28;20368;-77
2023/10/31 09:17:40;;;;;;;21.27;3.40;;;;;;;;;;5070414;28;20127;-77
2023/10/31 09:20:08;;;;;;;33.67;4.35;;;;;;;;;;5070399;28;20127;-76
2023/10/31 09:22:35;;;;;;;29.02;3.47;;;;;;;;;;5071888;28;20459;-77
2023/10/31 09:25:02;;;;;;;22.13;5.00;;;;;;;;;;5071273;28;20039;-76
2023/10/31 09:27:29;;;;;;;33.25;4.65;;;;;;;;;;5073075;28;20044;-77
2023/10/31 09:29:56;;;;;;;28.35;4.30;;;;;;;;;;5093382;28;20036;-74
2023/10/31 09:32:22;;;;;;;31.17;4.97;;;;;;;;;;5084033;28;20032;-76
2023/10/31 09:34:49;;;;;;;28.40;4.25;;;;;;;;;;5072784;28;20123;-76
2023/10/31 09:37:16;;;;;;;27.33;4.00;;;;;;;;;;5056090;28;20480;-76
2023/10/31 09:39:43;;;;;;;25.95;3.45;;;;;;;;;;5074509;28;20051;-76
2023/10/31 09:42:10;;;;;;;30.80;4.03;;;;;;;;;;5063393;28;20037;-77
2023/10/31 09:44:37;;;;;;;28.35;3.97;;;;;;;;;;5051739;28;20048;-78
2023/10/31 09:47:05;;;;;;;36.95;4.30;;;;;;;;;;5082083;28;20147;-75
2023/10/31 09:49:32;;;;;;;;;;;;;;;;;;5083711;28;20045;-76
2023/10/31 09:51:59;;;;;;;25.17;4.00;;;;;;;;;;5062219;28;20366;-78
2023/10/31 09:54:26;;;;;;;25.73;4.72;;;;;;;;;;5049367;28;20045;-76
2023/10/31 09:56:54;;;;;;;27.77;4.07;;;;;;;;;;5050160;28;20041;-76
2023/10/31 09:59:21;;;;;;;28.52;3.72;;;;;;;;;;5055266;28;20083;-76
2023/10/31 10:01:47;;;;;;;21.88;3.20;;;;;;;;;;5085265;28;20043;-76
2023/10/31 10:04:17;;;;;;;24.10;4.20;;;;;;;;;;5092401;28;20036;-76
2023/10/31 10:06:52;;;;;;;33.38;4.38;;;;;;;;;;5075036;28;20579;-75
2023/10/31 10:09:18;;;;;;;30.20;4.25;;;;;;;;;;5093277;28;20048;-75
2023/10/31 10:11:45;;;;;;;33.35;4.20;;;;;;;;;;5096862;28;20044;-76
2023/10/31 10:14:12;;;;;;;40.80;10.15;;;;;;;;;;5096760;28;20032;-76
2023/10/31 10:16:39;;;;;;;46.85;15.98;;;;;;;;;;5096953;28;20040;-75
2023/10/31 10:19:20;;;;;;;31.52;9.23;;;;;;;;;;5096564;28;20040;-76
2023/10/31 10:21:52;;;;;;;22.88;4.80;;;;;;;;;;5096859;28;20032;-76
2023/10/31 10:24:21;;;;;;;31.38;6.07;;;;;;;;;;5095235;28;20071;-75
2023/10/31 10:26:48;;;;;;;30.33;4.95;;;;;;;;;;5078770;28;20036;-76
2023/10/31 10:29:16;;;;;;;32.38;4.80;;;;;;;;;;5071220;28;20114;-75
2023/10/31 10:31:43;;;;;;;35.50;4.80;;;;;;;;;;5056257;28;20041;-75
2023/10/31 10:34:10;;;;;;;29.95;4.28;;;;;;;;;;5037453;28;20049;-76
2023/10/31 10:36:38;;;;;;;31.00;4.28;;;;;;;;;;5036219;28;20499;-75
2023/10/31 10:39:06;;;;;;;22.70;3.83;;;;;;;;;;5050911;28;20048;-75
2023/10/31 10:41:37;;;;;;;33.30;5.07;;;;;;;;;;5051736;28;20131;-75
2023/10/31 10:44:07;;;;;;;31.30;4.03;;;;;;;;;;5035694;28;20482;-73
2023/10/31 10:46:36;;;;;;;26.85;4.13;;;;;;;;;;5051424;28;20610;-76
2023/10/31 10:49:07;;;;;;;35.47;5.35;;;;;;;;;;5036212;28;20136;-75
2023/10/31 10:51:45;;;;;;;31.33;4.38;;;;;;;;;;5056201;28;20071;-75
2023/10/31 10:54:19;;;;;;;26.45;4.55;;;;;;;;;;5055613;28;20056;-75
2023/10/31 10:56:59;;;;;;;31.63;4.60;;;;;;;;;;5053991;28;20037;-76
2023/10/31 10:59:40;;;;;;;36.90;4.78;;;;;;;;;;5055289;28;20071;-76
2023/10/31 11:02:07;;;;;;;36.15;4.28;;;;;;;;;;5055488;28;20139;-76
2023/10/31 11:04:34;;;;;;;29.67;4.70;;;;;;;;;;5056368;28;20037;-76
2023/10/31 11:07:02;;;;;;;33.15;4.28;;;;;;;;;;5054579;28;20388;-75
2023/10/31 11:09:31;;;;;;;31.10;3.88;;;;;;;;;;5055214;28;20047;-76
2023/10/31 11:11:59;;;;;;;27.60;3.97;;;;;;;;;;5054213;28;20045;-76
2023/10/31 11:14:26;;;;;;;33.60;3.72;;;;;;;;;;5037188;28;20091;-76
2023/10/31 11:16:59;;;;;;;28.65;3.83;;;;;;;;;;5055478;28;20469;-76
2023/10/31 11:19:27;;;;;;;31.20;4.15;;;;;;;;;;5053678;28;20127;-75
2023/10/31 11:21:55;;;;;;;33.60;5.68;;;;;;;;;;5054847;28;20045;-76
2023/10/31 11:24:24;;;;;;;33.53;4.53;;;;;;;;;;5053590;28;20396;-76
2023/10/31 11:26:53;;;;;;;25.23;3.88;;;;;;;;;;5055279;28;20365;-75
2023/10/31 11:29:19;;;;;;;36.33;5.00;;;;;;;;;;5092423;28;20044;-74
2023/10/31 11:31:47;;;;;;;29.40;4.68;;;;;;;;;;5095359;28;20047;-75
2023/10/31 11:34:17;;;;;;;25.80;5.60;;;;;;;;;;5094858;28;20048;-75
2023/10/31 11:36:44;;;;;;;40.17;5.45;;;;;;;;;;5094160;28;20055;-76
2023/10/31 11:39:16;;;;;;;28.75;5.13;;;;;;;;;;5094817;28;20413;-75
2023/10/31 11:41:50;;;;;;;30.85;5.47;;;;;;;;;;5093740;28;20032;-76
2023/10/31 11:44:17;;;;;;;30.40;4.72;;;;;;;;;;5094632;28;20474;-76
2023/10/31 11:46:50;;;;;;;34.08;4.82;;;;;;;;;;5095109;28;20435;-76
2023/10/31 11:49:17;;;;;;;36.85;8.00;;;;;;;;;;5093321;28;20050;-75
2023/10/31 11:51:47;;;;;;;63.08;21.67;;;;;;;;;;5094873;28;20498;-75
2023/10/31 11:54:15;;;;;;;29.85;5.30;;;;;;;;;;5094616;28;20390;-75
2023/10/31 11:56:51;;;;;;;25.88;5.85;;;;;;;;;;5080840;28;20048;-76
2023/10/31 11:59:18;;;;;;;30.42;4.03;;;;;;;;;;5073077;28;20130;-76
2023/10/31 12:01:48;;;;;;;37.50;7.28;;;;;;;;;;5073137;28;20063;-76
2023/10/31 12:04:23;;;;;;;21.77;3.67;;;;;;;;;;5074257;28;20044;-76
2023/10/31 12:07:00;;;;;;;19.27;3.13;;;;;;;;;;5073988;28;20422;-76
2023/10/31 12:09:27;;;;;;;19.83;3.10;;;;;;;;;;5064275;28;20041;-76
2023/10/31 12:11:57;;;;;;;23.10;3.97;;;;;;;;;;5060597;28;20045;-76
2023/10/31 12:14:24;;;;;;;22.90;3.38;;;;;;;;;;5063070;28;20367;-76
2023/10/31 12:16:51;;;;;;;20.33;3.95;;;;;;;;;;5064761;28;20047;-76
2023/10/31 12:19:20;;;;;;;24.25;3.40;;;;;;;;;;5062251;28;20041;-76
2023/10/31 12:21:49;;;;;;;24.58;3.78;;;;;;;;;;5062839;28;20418;-76
2023/10/31 12:24:17;;;;;;;18.90;4.03;;;;;;;;;;5062178;28;20475;-76
2023/10/31 12:26:44;;;;;;;;;;;;;;;;;;5062318;28;20032;-75
2023/10/31 12:29:18;;;;;;;24.95;3.97;;;;;;;;;;5060617;28;19920;-75
2023/10/31 12:31:52;;;;;;;22.13;2.75;;;;;;;;;;5061315;28;20051;-75
2023/10/31 12:34:21;;;;;;;19.50;4.10;;;;;;;;;;5078338;28;20052;-76
2023/10/31 12:36:51;;;;;;;24.25;3.83;;;;;;;;;;5074556;28;20037;-75
2023/10/31 12:39:21;;;;;;;23.27;3.25;;;;;;;;;;5079368;28;20268;-75
2023/10/31 12:41:48;;;;;;;19.27;2.60;;;;;;;;;;5073849;28;20036;-75
2023/10/31 12:44:23;;;;;;;21.98;3.95;;;;;;;;;;5053560;28;20048;-79
2023/10/31 12:46:50;;;;;;;17.90;2.22;;;;;;;;;;5034295;28;20145;-75
2023/10/31 12:49:18;;;;;;;12.27;3.42;;;;;;;;;;5041613;28;20037;-75
2023/10/31 12:51:57;;;;;;;7.90;2.28;;;;;;;;;;5042448;28;20047;-75
2023/10/31 12:54:29;;;;;;;9.93;2.95;;;;;;;;;;5044030;28;20132;-76
2023/10/31 12:57:03;;;;;;;8.07;1.42;;;;;;;;;;5056660;28;20051;-75
2023/10/31 12:59:33;;;;;;;9.65;2.25;;;;;;;;;;5044090;28;20048;-75
2023/10/31 13:02:00;;;;;;;18.48;3.55;;;;;;;;;;5050761;28;20036;-77
2023/10/31 13:04:28;;;;;;;16.35;5.30;;;;;;;;;;5049721;28;20068;-75
2023/10/31 13:07:04;;;;;;;31.17;6.07;;;;;;;;;;5052589;28;20048;-75
2023/10/31 13:09:32;;;;;;;37.47;7.38;;;;;;;;;;5071833;28;20398;-74
2023/10/31 13:12:04;;;;;;;31.85;6.90;;;;;;;;;;5073117;28;20040;-75
2023/10/31 13:14:31;;;;;;;28.50;3.67;;;;;;;;;;5073033;28;20041;-76
2023/10/31 13:16:59;;;;;;;26.60;3.65;;;;;;;;;;5063439;28;20033;-75
2023/10/31 13:19:26;;;;;;;28.17;4.07;;;;;;;;;;5057495;28;20047;-75
2023/10/31 13:21:53;;;;;;;24.40;3.38;;;;;;;;;;5060256;28;20036;-74
2023/10/31 13:24:19;;;;;;;28.38;3.88;;;;;;;;;;5062209;28;20053;-75
2023/10/31 13:26:51;;;;;;;26.48;3.70;;;;;;;;;;5060113;28;20033;-75
2023/10/31 13:29:19;;;;;;;29.75;3.67;;;;;;;;;;5062168;28;20048;-74
2023/10/31 13:31:46;;;;;;;40.85;7.35;;;;;;;;;;5059842;28;20048;-75
2023/10/31 13:34:12;;;;;;;39.25;6.38;;;;;;;;;;5061487;28;20059;-75
2023/10/31 13:36:39;;;;;;;32.45;5.10;;;;;;;;;;5060383;28;20091;-75
2023/10/31 13:39:06;;;;;;;24.27;3.65;;;;;;;;;;5069038;28;20041;-75
2023/10/31 13:41:33;;;;;;;23.75;5.13;;;;;;;;;;5060876;28;20048;-76
2023/10/31 13:44:03;;;;;;;26.58;4.97;;;;;;;;;;5058863;28;20060;-74
2023/10/31 13:46:29;;;;;;;18.05;3.70;;;;;;;;;;5060228;28;20052;-75
2023/10/31 13:48:56;;;;;;;25.13;3.80;;;;;;;;;;5062584;28;20044;-75
2023/10/31 13:51:23;;;;;;;17.55;3.55;;;;;;;;;;5060551;28;20059;-74
2023/10/31 13:53:50;;;;;;;26.75;4.90;;;;;;;;;;5059478;28;20036;-74
2023/10/31 13:56:17;;;;;;;22.20;3.33;;;;;;;;;;5064159;28;20044;-77
2023/10/31 13:58:44;;;;;;;29.60;3.83;;;;;;;;;;5067923;28;20048;-74
2023/10/31 14:01:11;;;;;;;29.30;4.07;;;;;;;;;;5070168;28;20117;-73
2023/10/31 14:03:38;;;;;;;28.35;4.32;;;;;;;;;;5067788;28;20119;-75
2023/10/31 14:06:05;;;;;;;34.05;4.55;;;;;;;;;;5068225;28;20041;-75
2023/10/31 14:08:33;;;;;;;33.28;4.07;;;;;;;;;;5070312;28;20538;-73
2023/10/31 14:11:00;;;;;;;37.47;4.47;;;;;;;;;;5071232;28;20460;-75
2023/10/31 14:13:27;;;;;;;31.73;4.20;;;;;;;;;;5072871;28;20048;-76
2023/10/31 14:15:54;;;;;;;28.50;4.97;;;;;;;;;;5067643;28;20071;-74
2023/10/31 14:18:21;;;;;;;34.95;4.53;;;;;;;;;;5069885;28;20047;-75
2023/10/31 14:20:48;;;;;;;34.40;4.47;;;;;;;;;;5063960;28;20056;-75
2023/10/31 14:23:14;;;;;;;34.75;4.45;;;;;;;;;;5069698;28;20046;-74
2023/10/31 14:25:41;;;;;;;29.67;4.22;;;;;;;;;;5069453;28;20437;-74
2023/10/31 14:28:09;;;;;;;39.97;5.10;;;;;;;;;;5060234;28;20052;-74
2023/10/31 14:30:36;;;;;;;32.20;4.82;;;;;;;;;;5068199;28;20131;-75
2023/10/31 14:33:03;;;;;;;36.50;5.18;;;;;;;;;;5070067;28;20071;-74